Corpus Christi, TX (78418)

8:08 AM CST on February 10, 2016 (GMT -0600)
Flour Bluff | | Change Station
CLOSE
Current Station
Personal Weather Station
Location: Corpus Christi, TX
Elevation: 16 ft
Nearby Weather Stations

Elev 16 ft 27.65 °N, 97.30 °W | Updated 6 seconds ago

Clear
Clear
48.4 °F
Feels Like 48 °F
N
3.0
Wind Variable Wind from NNE
Gusts 4.0 mph

Today
High -- | Low -- °F
--% Chance of Precip.
Yesterday
High -- | Low -- °F
Precip. -- in
Pressure 30.37 in
Visibility 10.0 miles
Clouds Clear
Windchill 48 °F
Dew Point 41 °F
Humidity 75%
Rainfall 0.00 in
Snow Depth Not available.
7:10 AM 6:16 PM
Waxing Crescent, 5% visible
METAR KNGP 101356Z 02006KT 10SM CLR 10/04 A3037 RMK AO2 SLP284 T01000044
Pressure 30.37 in
Visibility 10.0 miles
Clouds Clear
Windchill 48 °F
Dew Point 41 °F
Humidity 75%
Rainfall 0.00 in
Snow Depth Not available.
7:10 AM 6:16 PM
Waxing Crescent, 5% visible
METAR KNGP 101356Z 02006KT 10SM CLR 10/04 A3037 RMK AO2 SLP284 T01000044

10-Day Weather Forecast

Almanac

Astronomy

Feb. 10, 2016 Rise Set
Actual Time
Civil Twilight
Nautical Twilight
Astronomical Twilight
Moon
Length of Visible Light
Length of Day
Tomorrow will be .
, % of the Moon is Illuminated

Today's Extremes

State Highs State Lows

Community

WunderPhotos

Upload Photos

1,891,846 photos uploaded!

WunderBlog® & News

Nearby

Air Quality

  Air Quality AQ Index Pollutant
Not available.

Snow Depth

Station Depth Elevation

Earthquake Activity

City Distance Mag. Time & Date
Minimum magnitude displayed is 2.5.

Coastal Water Temperatures

Place Temperature

Stations

Nearby Weather Stations

Station Location Temp. Windchill Dew Point Humidity Wind Precip. Elev Updated Type
                   

Watches & Warnings

There are currently no watches in effect.